Time;durP1;ratioP1;P1;durP2;ratioP2;P2;SDS_P1;SDS_P2;PMS_P1;PMS_P2;Temp;Humidity;BMP_temperature;BMP_pressure;BME280_temperature;BME280_humidity;BME280_pressure;Samples;Min_cycle;Max_cycle;Signal;HPM_P1;HPM_P2
2024/01/30 00:01:53;;;;;;;17.48;10.35;;;7.80;78.00;;;;;;5138263;27;20078;-70
2024/01/30 00:04:20;;;;;;;16.02;9.93;;;7.80;78.00;;;;;;5136282;27;20047;-71
2024/01/30 00:06:47;;;;;;;14.95;9.35;;;7.80;78.00;;;;;;5145876;27;20050;-73
2024/01/30 00:09:15;;;;;;;15.27;9.37;;;7.80;78.00;;;;;;5135080;27;20134;-70
2024/01/30 00:11:43;;;;;;;18.60;9.75;;;7.80;78.00;;;;;;5130647;27;20055;-70
2024/01/30 00:14:10;;;;;;;16.40;9.73;;;7.80;78.00;;;;;;5116922;27;20053;-71
2024/01/30 00:16:37;;;;;;;15.50;9.07;;;7.80;78.00;;;;;;5129018;27;20083;-72
2024/01/30 00:19:04;;;;;;;15.95;9.60;;;7.80;78.20;;;;;;5145683;27;20178;-71
2024/01/30 00:21:31;;;;;;;16.07;9.53;;;7.80;78.10;;;;;;5151687;27;20062;-73
2024/01/30 00:23:58;;;;;;;15.70;8.98;;;7.80;78.00;;;;;;5152219;27;20146;-71
2024/01/30 00:26:25;;;;;;;16.05;10.27;;;7.80;78.00;;;;;;5132672;27;20504;-70
2024/01/30 00:28:53;;;;;;;17.10;9.57;;;7.80;78.00;;;;;;5130381;27;20082;-70
2024/01/30 00:31:20;;;;;;;17.55;9.85;;;7.80;78.10;;;;;;5130834;27;20070;-70
2024/01/30 00:33:47;;;;;;;15.80;9.47;;;7.80;78.00;;;;;;5135715;27;20112;-70
2024/01/30 00:36:14;;;;;;;15.27;9.38;;;7.80;77.90;;;;;;5131689;27;20051;-70
2024/01/30 00:38:41;;;;;;;15.73;9.20;;;7.80;78.10;;;;;;5139910;27;20302;-70
2024/01/30 00:41:10;;;;;;;17.25;9.45;;;7.80;78.00;;;;;;5150758;27;20050;-71
2024/01/30 00:43:37;;;;;;;17.05;9.52;;;7.80;78.00;;;;;;5131900;27;20039;-70
2024/01/30 00:46:05;;;;;;;15.93;9.60;;;7.80;78.00;;;;;;5131382;27;20226;-71
2024/01/30 00:48:32;;;;;;;17.40;10.07;;;7.80;78.00;;;;;;5130912;27;20079;-72
2024/01/30 00:50:59;;;;;;;16.73;9.45;;;7.80;77.90;;;;;;5126940;27;20057;-71
2024/01/30 00:53:27;;;;;;;16.63;9.60;;;7.80;77.90;;;;;;5145571;27;20525;-73
2024/01/30 00:55:53;;;;;;;15.23;9.68;;;7.80;77.80;;;;;;5113726;27;20147;-70
2024/01/30 00:58:20;;;;;;;16.73;9.77;;;7.80;77.80;;;;;;5129793;27;20074;-72
2024/01/30 01:00:47;;;;;;;17.20;10.45;;;7.70;77.90;;;;;;5129704;27;20918;-70
2024/01/30 01:03:16;;;;;;;16.88;10.25;;;7.80;78.00;;;;;;5145883;27;20184;-72
2024/01/30 01:05:43;;;;;;;14.93;9.15;;;7.70;78.00;;;;;;5129445;27;20147;-71
2024/01/30 01:08:10;;;;;;;16.77;9.63;;;7.70;77.90;;;;;;5129146;27;20164;-71
2024/01/30 01:10:37;;;;;;;15.03;9.33;;;7.70;78.00;;;;;;5147388;27;20137;-72
2024/01/30 01:13:04;;;;;;;15.63;9.38;;;7.60;78.10;;;;;;5150812;27;20055;-71
2024/01/30 01:15:31;;;;;;;18.48;9.52;;;7.60;78.20;;;;;;5130593;27;20059;-71
2024/01/30 01:17:58;;;;;;;16.60;9.50;;;7.60;78.20;;;;;;5115954;27;20112;-71
2024/01/30 01:20:26;;;;;;;15.98;9.27;;;7.60;78.20;;;;;;5137171;27;20116;-73
2024/01/30 01:22:53;;;;;;;16.03;9.57;;;7.60;78.30;;;;;;5132821;27;20130;-72
2024/01/30 01:25:21;;;;;;;16.00;9.50;;;7.60;78.40;;;;;;5135258;27;20047;-71
2024/01/30 01:27:51;;;;;;;16.88;9.35;;;7.50;78.40;;;;;;5145270;27;20130;-71
2024/01/30 01:30:21;;;;;;;15.55;9.43;;;7.50;78.60;;;;;;5128924;27;20043;-70
2024/01/30 01:32:54;;;;;;;15.05;8.63;;;7.50;78.60;;;;;;5129328;27;20044;-70
2024/01/30 01:35:22;;;;;;;16.83;9.40;;;7.50;78.50;;;;;;5129320;27;20059;-73
2024/01/30 01:37:54;;;;;;;16.63;9.13;;;7.50;78.80;;;;;;5130910;27;20059;-70
2024/01/30 01:40:23;;;;;;;14.13;8.65;;;7.50;78.70;;;;;;5142370;27;20058;-70
2024/01/30 01:42:51;;;;;;;15.63;9.15;;;7.50;78.90;;;;;;5129538;27;20075;-72
2024/01/30 01:45:19;;;;;;;14.77;8.63;;;7.50;78.80;;;;;;5145889;27;20054;-71
2024/01/30 01:47:49;;;;;;;15.03;9.07;;;7.50;78.80;;;;;;5132934;27;20561;-71
2024/01/30 01:50:18;;;;;;;15.93;9.00;;;7.50;78.90;;;;;;5150170;27;20091;-73
2024/01/30 01:52:47;;;;;;;15.80;9.07;;;7.50;79.10;;;;;;5146216;27;20135;-69
2024/01/30 01:55:17;;;;;;;15.00;8.50;;;7.40;79.10;;;;;;5129175;27;20140;-73
2024/01/30 01:57:45;;;;;;;14.95;8.98;;;7.40;79.30;;;;;;5130062;27;20079;-72
2024/01/30 02:00:14;;;;;;;15.87;8.87;;;7.40;79.30;;;;;;5129140;27;20080;-70
2024/01/30 02:02:41;;;;;;;15.57;8.80;;;7.40;79.50;;;;;;5127594;27;20130;-71
2024/01/30 02:05:09;;;;;;;19.23;9.73;;;7.40;79.60;;;;;;5112923;27;20153;-73
2024/01/30 02:07:36;;;;;;;14.55;8.55;;;7.40;79.40;;;;;;5130083;27;20130;-71
2024/01/30 02:10:04;;;;;;;16.17;8.88;;;7.40;79.40;;;;;;5140243;27;20167;-70
2024/01/30 02:12:33;;;;;;;14.80;9.00;;;7.40;79.40;;;;;;5129721;27;20111;-72
2024/01/30 02:15:00;;;;;;;15.98;9.10;;;7.40;79.60;;;;;;5129741;27;20425;-71
2024/01/30 02:17:27;;;;;;;15.52;8.80;;;7.40;79.60;;;;;;5129856;27;20142;-72
2024/01/30 02:19:54;;;;;;;14.48;8.80;;;7.40;79.60;;;;;;5127399;27;20055;-70
2024/01/30 02:22:23;;;;;;;15.82;9.07;;;7.40;79.60;;;;;;5127844;27;20071;-74
2024/01/30 02:24:50;;;;;;;15.27;9.20;;;7.40;79.60;;;;;;5127609;27;20141;-70
2024/01/30 02:27:17;;;;;;;14.75;8.82;;;7.40;79.60;;;;;;5134008;27;20687;-72
2024/01/30 02:29:44;;;;;;;16.58;9.55;;;7.40;79.50;;;;;;5148003;27;20131;-70
2024/01/30 02:32:11;;;;;;;16.23;9.02;;;7.40;79.60;;;;;;5147956;27;20082;-72
2024/01/30 02:34:38;;;;;;;17.95;9.02;;;7.30;79.70;;;;;;5145099;27;20174;-70
2024/01/30 02:37:05;;;;;;;16.17;8.90;;;7.40;79.80;;;;;;5130254;27;20197;-70
2024/01/30 02:39:33;;;;;;;17.58;9.43;;;7.30;80.00;;;;;;5144897;27;20043;-70
2024/01/30 02:42:00;;;;;;;16.50;9.23;;;7.30;79.90;;;;;;5126869;27;20927;-71
2024/01/30 02:44:27;;;;;;;16.95;8.98;;;7.30;80.00;;;;;;5146708;27;20104;-72
2024/01/30 02:46:55;;;;;;;14.95;9.02;;;7.30;80.00;;;;;;5133753;27;20080;-70
2024/01/30 02:49:22;;;;;;;15.60;8.50;;;7.30;80.10;;;;;;5143698;27;20043;-70
2024/01/30 02:51:49;;;;;;;15.40;8.80;;;7.40;80.20;;;;;;5128047;27;20093;-70
2024/01/30 02:54:16;;;;;;;15.57;8.93;;;7.30;80.20;;;;;;5130001;27;20078;-71
2024/01/30 02:56:44;;;;;;;16.75;9.02;;;7.30;80.20;;;;;;5148880;27;20427;-70
2024/01/30 02:59:11;;;;;;;15.35;8.73;;;7.30;80.40;;;;;;5148801;27;20145;-70
2024/01/30 03:01:44;;;;;;;14.17;8.67;;;7.20;80.40;;;;;;5148280;27;20820;-71
2024/01/30 03:04:11;;;;;;;15.57;8.80;;;7.30;80.40;;;;;;5147473;27;20058;-71
2024/01/30 03:06:38;;;;;;;14.25;8.88;;;7.30;80.30;;;;;;5149030;27;20055;-72
2024/01/30 03:09:05;;;;;;;13.15;8.48;;;7.20;80.40;;;;;;5148615;27;20138;-71
2024/01/30 03:11:32;;;;;;;15.90;8.82;;;7.30;80.40;;;;;;5144613;27;20115;-73
2024/01/30 03:14:00;;;;;;;16.17;8.63;;;7.30;80.50;;;;;;5148514;27;20054;-70
2024/01/30 03:16:27;;;;;;;16.30;8.80;;;7.20;80.50;;;;;;5131721;27;20521;-70
2024/01/30 03:18:54;;;;;;;16.52;9.27;;;7.30;80.50;;;;;;5148918;27;20141;-73
2024/01/30 03:21:21;;;;;;;13.65;8.45;;;7.30;80.70;;;;;;5125475;27;20104;-69
2024/01/30 03:23:48;;;;;;;15.63;8.77;;;7.20;80.50;;;;;;5127917;27;20133;-73
2024/01/30 03:26:15;;;;;;;13.47;7.73;;;7.30;80.60;;;;;;5166545;27;20053;-70
2024/01/30 03:28:42;;;;;;;13.20;8.32;;;7.30;80.80;;;;;;5147326;27;20055;-72
2024/01/30 03:31:11;;;;;;;15.80;8.70;;;7.20;80.70;;;;;;5125650;27;20051;-69
2024/01/30 03:33:38;;;;;;;12.30;7.78;;;7.20;80.60;;;;;;5110962;27;20579;-72
2024/01/30 03:36:06;;;;;;;16.05;9.35;;;7.20;80.80;;;;;;5110429;27;20054;-71
2024/01/30 03:38:33;;;;;;;14.10;9.03;;;7.20;80.70;;;;;;5127689;27;20573;-71
2024/01/30 03:41:01;;;;;;;15.75;8.93;;;7.20;80.70;;;;;;5143378;27;20104;-72
2024/01/30 03:43:28;;;;;;;14.52;8.35;;;7.30;80.80;;;;;;5149192;27;20082;-71
2024/01/30 03:45:55;;;;;;;13.88;8.43;;;7.30;80.80;;;;;;5147998;27;20070;-71
2024/01/30 03:48:23;;;;;;;14.68;7.90;;;7.30;80.80;;;;;;5149165;27;20050;-71
2024/01/30 03:50:50;;;;;;;14.70;8.30;;;7.20;80.80;;;;;;5126755;27;20149;-71
2024/01/30 03:53:17;;;;;;;14.20;8.38;;;7.20;80.80;;;;;;5127477;27;20058;-71
2024/01/30 03:55:44;;;;;;;15.77;8.75;;;7.20;80.90;;;;;;5127097;27;20154;-69
2024/01/30 03:58:11;;;;;;;14.63;8.38;;;7.20;81.00;;;;;;5127472;27;20142;-71
2024/01/30 04:00:38;;;;;;;14.75;8.20;;;7.20;81.00;;;;;;5127007;27;20055;-70
2024/01/30 04:03:05;;;;;;;15.13;8.17;;;7.30;81.20;;;;;;5127461;27;20058;-71
2024/01/30 04:05:34;;;;;;;14.63;8.77;;;7.30;81.10;;;;;;5133938;27;20051;-70
2024/01/30 04:08:01;;;;;;;14.07;8.63;;;7.30;81.20;;;;;;5148425;27;20099;-69
2024/01/30 04:10:29;;;;;;;13.88;7.93;;;7.30;81.20;;;;;;5148569;27;20074;-71
2024/01/30 04:12:56;;;;;;;13.68;8.20;;;7.30;81.20;;;;;;5142437;27;20051;-71
2024/01/30 04:15:23;;;;;;;13.43;8.07;;;7.30;81.20;;;;;;5136806;27;20057;-69
2024/01/30 04:17:50;;;;;;;14.48;7.53;;;7.30;81.40;;;;;;5147789;27;20069;-69
2024/01/30 04:20:17;;;;;;;15.50;8.70;;;7.30;81.30;;;;;;5144273;27;20055;-70
2024/01/30 04:22:46;;;;;;;16.30;8.55;;;7.30;81.30;;;;;;5127375;27;20555;-70
2024/01/30 04:25:14;;;;;;;13.80;8.35;;;7.40;81.50;;;;;;5142553;27;20051;-71
2024/01/30 04:27:41;;;;;;;15.53;8.43;;;7.40;81.70;;;;;;5131663;27;20198;-73
2024/01/30 04:30:09;;;;;;;13.32;7.80;;;7.40;81.70;;;;;;5129807;27;20058;-72
2024/01/30 04:32:37;;;;;;;15.00;8.45;;;7.40;81.70;;;;;;5113740;27;20134;-72
2024/01/30 04:35:04;;;;;;;14.80;9.02;;;7.40;81.60;;;;;;5131213;27;20525;-70
2024/01/30 04:37:31;;;;;;;16.58;8.80;;;7.40;81.80;;;;;;5130946;27;20050;-71
2024/01/30 04:40:00;;;;;;;12.97;7.93;;;7.50;82.20;;;;;;5130648;27;20134;-70
2024/01/30 04:42:27;;;;;;;15.10;8.57;;;7.50;82.00;;;;;;5128241;27;20155;-71
2024/01/30 04:44:54;;;;;;;14.82;8.27;;;7.50;82.00;;;;;;5130724;27;20127;-70
2024/01/30 04:47:21;;;;;;;12.90;7.68;;;7.50;81.90;;;;;;5130417;27;20440;-72
2024/01/30 04:49:48;;;;;;;15.05;8.55;;;7.50;81.90;;;;;;5132165;27;20051;-71
2024/01/30 04:52:15;;;;;;;15.93;8.53;;;7.50;81.90;;;;;;5134133;27;20577;-70
2024/01/30 04:54:42;;;;;;;14.88;9.15;;;7.50;82.10;;;;;;5115718;27;20113;-71
2024/01/30 04:57:12;;;;;;;16.13;8.02;;;7.50;82.00;;;;;;5152494;27;21007;-72
2024/01/30 04:59:39;;;;;;;14.63;7.97;;;7.60;82.10;;;;;;5144612;27;20051;-70
2024/01/30 05:02:06;;;;;;;15.25;8.10;;;7.60;82.00;;;;;;5134091;27;20152;-73
2024/01/30 05:04:33;;;;;;;15.47;8.23;;;7.60;82.00;;;;;;5130378;27;20646;-73
2024/01/30 05:07:00;;;;;;;13.90;7.80;;;7.60;82.00;;;;;;5129229;27;20063;-72
2024/01/30 05:09:28;;;;;;;15.27;8.18;;;7.60;82.00;;;;;;5130601;27;20134;-72
2024/01/30 05:11:55;;;;;;;12.90;7.55;;;7.60;81.90;;;;;;5141371;27;20120;-72
2024/01/30 05:14:24;;;;;;;12.77;7.78;;;7.60;82.00;;;;;;5138343;27;20054;-70
2024/01/30 05:16:51;;;;;;;12.17;7.93;;;7.60;81.90;;;;;;5127598;27;20047;-71
2024/01/30 05:19:18;;;;;;;14.25;8.55;;;7.60;81.80;;;;;;5148378;27;20150;-72
2024/01/30 05:21:45;;;;;;;14.32;7.90;;;7.70;82.00;;;;;;5154944;27;20248;-70
2024/01/30 05:24:12;;;;;;;13.85;7.47;;;7.60;81.90;;;;;;5127402;27;20129;-72
2024/01/30 05:26:39;;;;;;;16.73;8.13;;;7.70;82.00;;;;;;5117039;27;20603;-71
2024/01/30 05:29:07;;;;;;;17.43;8.70;;;7.70;82.00;;;;;;5129332;27;20050;-71
2024/01/30 05:31:36;;;;;;;15.10;8.63;;;7.70;82.00;;;;;;5138384;27;20134;-73
2024/01/30 05:34:03;;;;;;;14.18;8.15;;;7.80;82.00;;;;;;5147131;27;20047;-70
2024/01/30 05:36:30;;;;;;;13.75;7.70;;;7.80;82.20;;;;;;5132325;27;20050;-72
2024/01/30 05:38:57;;;;;;;14.95;8.25;;;7.80;82.00;;;;;;5149379;27;20046;-71
2024/01/30 05:41:24;;;;;;;15.73;8.33;;;7.80;81.90;;;;;;5143206;27;20264;-70
2024/01/30 05:43:54;;;;;;;15.40;8.55;;;7.80;82.00;;;;;;5128829;27;20188;-71
2024/01/30 05:46:21;;;;;;;17.00;7.55;;;7.80;82.00;;;;;;5129312;27;20047;-70
2024/01/30 05:48:50;;;;;;;14.25;7.78;;;7.80;82.10;;;;;;5112033;27;20135;-70
2024/01/30 05:51:17;;;;;;;16.92;9.30;;;7.80;82.00;;;;;;5130339;27;20049;-73
2024/01/30 05:53:44;;;;;;;15.20;7.90;;;7.80;82.00;;;;;;5151068;27;20074;-72
2024/01/30 05:56:11;;;;;;;13.95;8.15;;;7.80;82.00;;;;;;5165359;27;20060;-73
2024/01/30 05:58:38;;;;;;;14.55;8.07;;;7.80;82.10;;;;;;5130169;27;20116;-73
2024/01/30 06:01:08;;;;;;;17.33;8.48;;;7.80;82.30;;;;;;5111791;27;20130;-73
2024/01/30 06:03:35;;;;;;;14.43;8.45;;;7.80;82.10;;;;;;5129677;27;20047;-72
2024/01/30 06:06:03;;;;;;;14.37;8.33;;;7.90;82.10;;;;;;5129548;27;20146;-73
2024/01/30 06:08:30;;;;;;;13.93;8.05;;;7.90;82.20;;;;;;5126763;27;20131;-71
2024/01/30 06:10:57;;;;;;;15.85;8.88;;;8.00;82.10;;;;;;5147843;27;20502;-71
2024/01/30 06:13:24;;;;;;;14.05;8.63;;;8.00;82.20;;;;;;5127670;27;20051;-70
2024/01/30 06:15:51;;;;;;;13.73;8.70;;;8.00;82.30;;;;;;5143848;27;20054;-72
2024/01/30 06:18:18;;;;;;;13.93;8.80;;;8.00;82.20;;;;;;5138306;27;20123;-71
2024/01/30 06:20:45;;;;;;;16.13;8.23;;;8.00;82.30;;;;;;5131411;27;20114;-70
2024/01/30 06:23:14;;;;;;;15.35;8.70;;;8.00;82.10;;;;;;5165145;27;20170;-71
2024/01/30 06:25:41;;;;;;;15.15;8.30;;;8.00;82.10;;;;;;5132561;27;20051;-70
2024/01/30 06:28:08;;;;;;;14.50;7.90;;;8.00;81.90;;;;;;5131827;27;20140;-72
2024/01/30 06:30:35;;;;;;;14.00;8.00;;;8.00;81.80;;;;;;5126831;27;20585;-70
2024/01/30 06:33:02;;;;;;;17.13;8.30;;;8.00;81.80;;;;;;5142085;27;20850;-70
2024/01/30 06:35:30;;;;;;;14.63;8.20;;;8.00;81.80;;;;;;5132466;27;20146;-70
2024/01/30 06:37:57;;;;;;;14.48;8.27;;;8.00;81.80;;;;;;5134614;27;20051;-70
2024/01/30 06:40:25;;;;;;;14.27;7.20;;;8.00;81.80;;;;;;5128081;27;20094;-70
2024/01/30 06:42:52;;;;;;;13.47;6.73;;;8.00;81.80;;;;;;5128239;27;20075;-70
2024/01/30 06:45:19;;;;;;;12.52;6.78;;;8.00;81.80;;;;;;5126019;27;20051;-70
2024/01/30 06:47:46;;;;;;;15.85;7.72;;;8.00;81.90;;;;;;5138005;27;20858;-72
2024/01/30 06:50:13;;;;;;;12.70;7.20;;;8.00;81.90;;;;;;5148832;27;20057;-70
2024/01/30 06:52:40;;;;;;;15.60;8.63;;;8.00;82.00;;;;;;5139486;27;20257;-70
2024/01/30 06:55:07;;;;;;;12.50;7.47;;;8.00;82.00;;;;;;5145973;27;20046;-70
2024/01/30 06:57:36;;;;;;;14.10;7.43;;;8.00;82.20;;;;;;5146957;27;20761;-71
2024/01/30 07:00:03;;;;;;;13.88;7.45;;;8.00;82.20;;;;;;5130962;27;20046;-72
2024/01/30 07:02:30;;;;;;;12.50;6.72;;;8.00;82.20;;;;;;5141945;27;20074;-72
2024/01/30 07:04:57;;;;;;;14.57;7.72;;;8.00;82.20;;;;;;5147220;27;20178;-70
2024/01/30 07:07:24;;;;;;;14.43;7.57;;;8.10;82.30;;;;;;5144189;27;20557;-70
2024/01/30 07:09:56;;;;;;;13.02;7.43;;;8.10;82.40;;;;;;5147287;27;20105;-72
2024/01/30 07:12:24;;;;;;;14.43;7.43;;;8.10;82.30;;;;;;5140217;27;20054;-72
2024/01/30 07:14:53;;;;;;;16.02;8.30;;;8.10;82.30;;;;;;5126099;27;20996;-73
2024/01/30 07:17:20;;;;;;;18.52;8.40;;;8.10;82.30;;;;;;5126965;27;20047;-70
2024/01/30 07:19:47;;;;;;;15.33;8.87;;;8.10;82.50;;;;;;5143257;27;20075;-70
2024/01/30 07:22:14;;;;;;;18.17;8.80;;;8.10;82.60;;;;;;5140968;27;20066;-71
2024/01/30 07:24:47;;;;;;;14.27;8.30;;;8.20;82.60;;;;;;5143758;27;20149;-72
2024/01/30 07:27:17;;;;;;;17.17;9.07;;;8.20;82.70;;;;;;5143234;27;20042;-70
2024/01/30 07:29:44;;;;;;;14.52;8.02;;;8.20;82.60;;;;;;5141642;27;20050;-71
2024/01/30 07:32:12;;;;;;;15.67;8.00;;;8.20;82.60;;;;;;5142225;27;20051;-72
2024/01/30 07:34:40;;;;;;;13.50;8.15;;;8.30;82.50;;;;;;5135359;27;20054;-71
2024/01/30 07:37:08;;;;;;;15.05;8.27;;;8.20;82.50;;;;;;5144464;27;20043;-73
2024/01/30 07:39:35;;;;;;;15.02;7.45;;;8.30;82.50;;;;;;5138262;27;20039;-70
2024/01/30 07:42:02;;;;;;;12.00;7.38;;;8.30;82.40;;;;;;5126685;27;20051;-70
2024/01/30 07:44:29;;;;;;;14.10;7.83;;;8.30;82.40;;;;;;5145273;27;20138;-70
2024/01/30 07:46:57;;;;;;;13.45;7.03;;;8.30;82.50;;;;;;5162340;27;20114;-72
2024/01/30 07:49:25;;;;;;;14.60;7.43;;;8.30;82.60;;;;;;5143856;27;20135;-70
2024/01/30 07:51:52;;;;;;;14.43;7.75;;;8.30;82.50;;;;;;5146714;27;20154;-72
2024/01/30 07:54:19;;;;;;;15.32;7.95;;;8.30;82.60;;;;;;5143072;27;20055;-71
2024/01/30 07:56:46;;;;;;;14.13;7.63;;;8.40;82.50;;;;;;5130816;27;20659;-73
2024/01/30 07:59:13;;;;;;;13.40;8.07;;;8.40;82.60;;;;;;5141955;27;20797;-70
2024/01/30 08:01:41;;;;;;;16.65;8.20;;;8.40;82.60;;;;;;5148662;27;20051;-72
2024/01/30 08:04:08;;;;;;;14.50;7.40;;;8.40;82.60;;;;;;5149561;27;20050;-73
2024/01/30 08:06:36;;;;;;;14.88;7.93;;;8.40;82.50;;;;;;5150162;27;20139;-72
2024/01/30 08:09:04;;;;;;;14.57;7.90;;;8.40;82.60;;;;;;5143902;27;20050;-73
2024/01/30 08:11:31;;;;;;;14.52;7.85;;;8.40;82.70;;;;;;5136917;27;20051;-72
2024/01/30 08:13:58;;;;;;;12.13;7.68;;;8.40;82.70;;;;;;5133581;27;21010;-73
2024/01/30 08:16:25;;;;;;;15.05;7.60;;;8.50;82.70;;;;;;5148556;27;20167;-70
2024/01/30 08:18:53;;;;;;;14.23;7.60;;;8.50;82.70;;;;;;5166069;27;20134;-70
2024/01/30 08:21:20;;;;;;;14.13;7.90;;;8.50;82.80;;;;;;5146677;27;20550;-72
2024/01/30 08:23:48;;;;;;;12.00;6.47;;;8.60;82.80;;;;;;5147606;27;20074;-73
2024/01/30 08:26:15;;;;;;;12.73;7.25;;;8.60;82.80;;;;;;5151096;27;20118;-71
2024/01/30 08:28:42;;;;;;;13.65;7.78;;;8.60;82.70;;;;;;5145596;27;20058;-70
2024/01/30 08:31:11;;;;;;;13.50;7.65;;;8.60;82.80;;;;;;5146768;27;20525;-72
2024/01/30 08:33:38;;;;;;;14.43;8.00;;;8.60;82.90;;;;;;5150734;27;20064;-71
2024/01/30 08:36:06;;;;;;;12.85;6.88;;;8.60;82.90;;;;;;5150156;27;20050;-72
2024/01/30 08:38:34;;;;;;;13.75;6.70;;;8.60;82.90;;;;;;5148749;27;20475;-70
2024/01/30 08:41:02;;;;;;;14.55;7.63;;;8.70;82.90;;;;;;5131430;27;20047;-72
2024/01/30 08:43:29;;;;;;;13.07;7.15;;;8.80;82.80;;;;;;5147899;27;20050;-71
2024/01/30 08:45:59;;;;;;;13.03;7.27;;;8.80;82.90;;;;;;5135353;27;20838;-70
2024/01/30 08:48:26;;;;;;;16.15;8.10;;;8.80;82.80;;;;;;5125727;27;20055;-71
2024/01/30 08:50:53;;;;;;;14.15;7.00;;;8.80;82.90;;;;;;5131178;27;20066;-69
2024/01/30 08:53:20;;;;;;;13.88;7.55;;;8.90;82.90;;;;;;5131389;27;20591;-70
2024/01/30 08:55:48;;;;;;;14.38;7.18;;;8.90;82.80;;;;;;5113615;27;20053;-69
2024/01/30 08:58:18;;;;;;;12.07;6.90;;;8.90;82.70;;;;;;5112717;27;20135;-71
2024/01/30 09:00:45;;;;;;;13.07;6.90;;;8.90;82.70;;;;;;5148332;27;20141;-70
2024/01/30 09:03:12;;;;;;;14.35;8.48;;;8.90;82.70;;;;;;5134164;27;20050;-70
2024/01/30 09:05:39;;;;;;;14.40;8.05;;;9.00;82.70;;;;;;5141959;27;20099;-71
2024/01/30 09:08:06;;;;;;;12.30;6.85;;;9.00;82.80;;;;;;5129625;27;20145;-72
2024/01/30 09:10:33;;;;;;;12.33;7.00;;;9.00;82.70;;;;;;5145693;27;20148;-69
2024/01/30 09:13:00;;;;;;;13.55;7.18;;;9.00;82.70;;;;;;5150391;27;21915;-70
2024/01/30 09:15:29;;;;;;;13.13;7.00;;;9.00;82.80;;;;;;5142484;27;20047;-72
2024/01/30 09:17:56;;;;;;;15.45;7.07;;;9.00;82.80;;;;;;5127485;27;20065;-70
2024/01/30 09:20:23;;;;;;;14.70;7.80;;;9.00;82.90;;;;;;5147578;27;20084;-72
2024/01/30 09:22:50;;;;;;;14.60;8.13;;;9.00;82.90;;;;;;5146137;27;20047;-69
2024/01/30 09:25:18;;;;;;;13.50;7.60;;;9.10;82.90;;;;;;5146367;27;20545;-71
2024/01/30 09:27:45;;;;;;;14.68;7.85;;;9.10;82.80;;;;;;5138791;27;20047;-70
2024/01/30 09:30:13;;;;;;;12.07;6.90;;;9.10;82.90;;;;;;5145716;27;20178;-69
2024/01/30 09:32:43;;;;;;;13.38;7.43;;;9.10;83.00;;;;;;5147865;27;20055;-70
2024/01/30 09:35:10;;;;;;;13.07;8.07;;;9.20;83.00;;;;;;5145056;27;20139;-70
2024/01/30 09:37:37;;;;;;;14.57;7.13;;;9.20;83.10;;;;;;5137172;27;20054;-70
2024/01/30 09:40:05;;;;;;;14.65;6.95;;;9.20;83.00;;;;;;5127811;27;20051;-70
2024/01/30 09:42:35;;;;;;;17.13;7.53;;;9.20;83.00;;;;;;5126688;27;20059;-69
2024/01/30 09:45:03;;;;;;;13.55;7.70;;;9.20;83.00;;;;;;5129159;27;20058;-69
2024/01/30 09:47:32;;;;;;;12.73;7.17;;;9.30;83.20;;;;;;5145696;27;20047;-70
2024/01/30 09:50:03;;;;;;;12.93;7.22;;;9.30;83.00;;;;;;5131190;27;20051;-71
2024/01/30 09:52:30;;;;;;;12.18;7.30;;;9.40;83.10;;;;;;5147155;27;20138;-71
2024/01/30 09:55:01;;;;;;;13.57;7.35;;;9.40;83.20;;;;;;5129709;27;20043;-71
2024/01/30 09:57:28;;;;;;;15.38;7.50;;;9.40;83.30;;;;;;5146516;27;20050;-70
2024/01/30 09:59:55;;;;;;;12.53;7.20;;;9.40;83.40;;;;;;5123883;27;20079;-70
2024/01/30 10:02:23;;;;;;;14.90;7.50;;;9.50;83.40;;;;;;5144018;27;20115;-71
2024/01/30 10:04:52;;;;;;;13.60;7.20;;;9.50;83.30;;;;;;5129882;27;20437;-72
2024/01/30 10:07:20;;;;;;;15.00;7.75;;;9.50;83.30;;;;;;5144583;27;20531;-69
2024/01/30 10:09:49;;;;;;;12.95;6.60;;;9.60;83.40;;;;;;5148236;27;20046;-69
2024/01/30 10:12:16;;;;;;;14.07;8.00;;;9.60;83.40;;;;;;5132029;27;20158;-69
2024/01/30 10:14:44;;;;;;;14.85;7.63;;;9.60;83.50;;;;;;5150499;27;20046;-68
2024/01/30 10:17:12;;;;;;;15.38;7.40;;;9.60;83.60;;;;;;5129386;27;20616;-71
2024/01/30 10:19:40;;;;;;;15.93;7.68;;;9.70;83.60;;;;;;5163588;27;20104;-71
2024/01/30 10:22:07;;;;;;;13.45;7.03;;;9.70;83.60;;;;;;5128174;27;20047;-70
2024/01/30 10:24:36;;;;;;;13.33;7.63;;;9.70;83.60;;;;;;5144553;27;20131;-71
2024/01/30 10:27:04;;;;;;;12.48;6.60;;;9.80;83.70;;;;;;5142144;27;20130;-70
2024/01/30 10:29:31;;;;;;;16.10;8.10;;;9.80;83.80;;;;;;5131622;27;20055;-70
2024/01/30 10:31:59;;;;;;;14.15;7.82;;;9.90;83.70;;;;;;5149301;27;20057;-70
2024/01/30 10:34:27;;;;;;;13.18;7.53;;;10.00;83.70;;;;;;5131488;27;20039;-71
2024/01/30 10:37:01;;;;;;;14.63;7.77;;;10.00;83.70;;;;;;5125108;27;20719;-71
2024/01/30 10:39:30;;;;;;;14.10;7.68;;;10.00;83.60;;;;;;5146291;27;20238;-71
2024/01/30 10:42:04;;;;;;;14.88;7.57;;;10.10;83.50;;;;;;5144187;27;20050;-71
2024/01/30 10:44:40;;;;;;;13.70;6.85;;;10.10;83.40;;;;;;5143286;27;20054;-71
2024/01/30 10:47:11;;;;;;;14.88;7.32;;;10.10;83.40;;;;;;5145470;27;20125;-71
2024/01/30 10:49:38;;;;;;;16.40;7.50;;;10.20;83.50;;;;;;5125660;27;20054;-70
2024/01/30 10:52:06;;;;;;;13.43;6.97;;;10.20;83.40;;;;;;5125576;27;20878;-70
2024/01/30 10:54:35;;;;;;;14.00;6.88;;;10.20;83.30;;;;;;5141205;27;20146;-70
2024/01/30 10:57:05;;;;;;;14.40;7.40;;;10.20;83.40;;;;;;5147167;27;20108;-71
2024/01/30 10:59:33;;;;;;;12.85;7.38;;;10.30;83.30;;;;;;5146020;27;20075;-70
2024/01/30 11:02:01;;;;;;;14.87;7.87;;;10.30;83.40;;;;;;5146010;27;20054;-71
2024/01/30 11:04:36;;;;;;;13.63;7.30;;;10.30;83.30;;;;;;5140551;27;21215;-71
2024/01/30 11:07:04;;;;;;;17.45;8.30;;;10.30;83.40;;;;;;5147756;27;20107;-71
2024/01/30 11:09:31;;;;;;;12.48;7.03;;;10.30;83.40;;;;;;5147725;27;20265;-71
2024/01/30 11:11:59;;;;;;;14.80;8.52;;;10.40;83.40;;;;;;5146427;27;20532;-70
2024/01/30 11:14:30;;;;;;;16.70;7.97;;;10.40;83.50;;;;;;5144685;27;20047;-71
2024/01/30 11:16:58;;;;;;;16.67;8.05;;;10.50;83.50;;;;;;5147847;27;20095;-70
2024/01/30 11:19:26;;;;;;;14.40;7.10;;;10.50;83.50;;;;;;5148917;27;20480;-72
2024/01/30 11:21:56;;;;;;;16.48;7.90;;;10.50;83.60;;;;;;5138717;27;20090;-69
2024/01/30 11:24:23;;;;;;;17.23;7.90;;;10.50;83.70;;;;;;5132645;27;20053;-69
2024/01/30 11:26:50;;;;;;;16.23;8.80;;;10.60;83.70;;;;;;5149364;27;20047;-70
2024/01/30 11:29:18;;;;;;;18.17;10.07;;;10.60;83.70;;;;;;5131178;27;20050;-70
2024/01/30 11:31:54;;;;;;;12.85;7.28;;;10.70;83.40;;;;;;5128127;27;20129;-70
2024/01/30 11:34:22;;;;;;;20.15;9.05;;;10.80;83.10;;;;;;5147470;27;20596;-70
2024/01/30 11:36:55;;;;;;;17.95;9.32;;;10.80;82.80;;;;;;5145280;27;20074;-70
2024/01/30 11:39:22;;;;;;;16.10;8.03;;;10.80;82.80;;;;;;5144205;27;20042;-71
2024/01/30 11:41:52;;;;;;;16.95;8.38;;;10.80;82.80;;;;;;5125186;27;20043;-70
2024/01/30 11:44:20;;;;;;;18.25;9.20;;;10.80;82.80;;;;;;5165678;27;20057;-70
2024/01/30 11:46:47;;;;;;;15.95;8.85;;;10.80;82.80;;;;;;5145644;27;20058;-70
2024/01/30 11:49:17;;;;;;;18.17;8.98;;;10.90;82.70;;;;;;5130606;27;20102;-70
2024/01/30 11:51:44;;;;;;;17.83;9.17;;;10.90;82.60;;;;;;5136907;27;20130;-70
2024/01/30 11:54:11;;;;;;;18.80;9.13;;;10.90;82.60;;;;;;5126910;27;20054;-70
2024/01/30 11:56:38;;;;;;;18.27;9.93;;;10.90;82.50;;;;;;5135704;27;20182;-70
2024/01/30 11:59:05;;;;;;;14.50;8.48;;;11.00;82.20;;;;;;5144264;27;20047;-70
2024/01/30 12:01:33;;;;;;;15.38;8.48;;;11.10;82.00;;;;;;5134240;27;20877;-71
2024/01/30 12:04:00;;;;;;;17.30;9.47;;;11.10;81.90;;;;;;5146163;27;21338;-71
2024/01/30 12:06:29;;;;;;;17.77;9.00;;;11.10;81.50;;;;;;5164254;27;20047;-71
2024/01/30 12:08:58;;;;;;;15.30;8.07;;;11.10;81.10;;;;;;5124410;27;20074;-70
2024/01/30 12:11:25;;;;;;;16.60;8.13;;;11.10;80.70;;;;;;5142271;27;21142;-70
2024/01/30 12:13:53;;;;;;;13.75;6.72;;;11.20;80.20;;;;;;5142745;27;20059;-70
2024/01/30 12:16:20;;;;;;;20.83;7.57;;;11.30;80.30;;;;;;5144022;27;20074;-69
2024/01/30 12:18:48;;;;;;;17.70;8.30;;;11.10;80.40;;;;;;5140115;27;20126;-70
2024/01/30 12:21:17;;;;;;;11.63;5.55;;;11.10;80.40;;;;;;5164375;27;20062;-69
2024/01/30 12:23:46;;;;;;;13.18;5.57;;;11.10;80.50;;;;;;5142136;27;20078;-69
2024/01/30 12:26:13;;;;;;;11.00;4.07;;;11.00;80.20;;;;;;5144846;27;20592;-69
2024/01/30 12:28:49;;;;;;;10.93;3.53;;;10.90;79.70;;;;;;5145305;27;20149;-70
2024/01/30 12:31:16;;;;;;;10.13;4.18;;;10.80;79.20;;;;;;5147711;27;20214;-69
2024/01/30 12:33:43;;;;;;;13.23;3.25;;;10.80;78.90;;;;;;5125920;27;20051;-70
2024/01/30 12:36:10;;;;;;;7.38;2.70;;;10.70;78.90;;;;;;5147837;27;20192;-70
2024/01/30 12:38:37;;;;;;;5.90;2.40;;;10.60;78.50;;;;;;5126920;27;20821;-70
2024/01/30 12:41:08;;;;;;;6.03;2.53;;;10.60;78.60;;;;;;5147578;27;20150;-70
2024/01/30 12:43:35;;;;;;;8.10;2.63;;;10.60;78.40;;;;;;5125684;27;20808;-69
2024/01/30 12:46:03;;;;;;;7.03;2.50;;;10.50;78.20;;;;;;5147862;27;20486;-70
2024/01/30 12:48:30;;;;;;;5.13;1.80;;;10.50;78.00;;;;;;5130900;27;20119;-70